sensor_id;sensor_type;location;lat;lon;timestamp;P1;durP1;ratioP1;P2;durP2;ratioP2
37559;SDS011;23398;50.928;7.084;2023-07-29T00:01:20;1.25;;;1.05;;
37559;SDS011;23398;50.928;7.084;2023-07-29T00:03:46;1.35;;;1.10;;
37559;SDS011;23398;50.928;7.084;2023-07-29T00:06:12;1.20;;;1.00;;
37559;SDS011;23398;50.928;7.084;2023-07-29T00:08:37;1.83;;;1.20;;
37559;SDS011;23398;50.928;7.084;2023-07-29T00:11:03;1.63;;;1.00;;
37559;SDS011;23398;50.928;7.084;2023-07-29T00:13:28;2.45;;;0.98;;
37559;SDS011;23398;50.928;7.084;2023-07-29T00:15:54;1.52;;;1.00;;
37559;SDS011;23398;50.928;7.084;2023-07-29T00:18:20;1.17;;;1.02;;
37559;SDS011;23398;50.928;7.084;2023-07-29T00:20:47;1.95;;;0.95;;
37559;SDS011;23398;50.928;7.084;2023-07-29T00:23:13;1.10;;;1.00;;
37559;SDS011;23398;50.928;7.084;2023-07-29T00:25:38;1.10;;;1.00;;
37559;SDS011;23398;50.928;7.084;2023-07-29T00:28:04;1.15;;;1.05;;
37559;SDS011;23398;50.928;7.084;2023-07-29T00:30:29;2.08;;;1.17;;
37559;SDS011;23398;50.928;7.084;2023-07-29T00:32:55;3.42;;;1.00;;
37559;SDS011;23398;50.928;7.084;2023-07-29T00:35:21;2.10;;;1.10;;
37559;SDS011;23398;50.928;7.084;2023-07-29T00:37:46;2.65;;;1.08;;
37559;SDS011;23398;50.928;7.084;2023-07-29T00:40:15;1.23;;;1.02;;
37559;SDS011;23398;50.928;7.084;2023-07-29T00:42:46;3.40;;;1.00;;
37559;SDS011;23398;50.928;7.084;2023-07-29T00:45:11;1.10;;;1.00;;
37559;SDS011;23398;50.928;7.084;2023-07-29T00:47:37;3.47;;;1.42;;
37559;SDS011;23398;50.928;7.084;2023-07-29T00:50:03;1.10;;;1.00;;
37559;SDS011;23398;50.928;7.084;2023-07-29T00:52:30;1.90;;;1.10;;
37559;SDS011;23398;50.928;7.084;2023-07-29T00:54:55;1.42;;;1.05;;
37559;SDS011;23398;50.928;7.084;2023-07-29T00:57:21;1.60;;;1.20;;
37559;SDS011;23398;50.928;7.084;2023-07-29T00:59:47;1.23;;;1.13;;
37559;SDS011;23398;50.928;7.084;2023-07-29T01:02:13;4.78;;;1.20;;
37559;SDS011;23398;50.928;7.084;2023-07-29T01:04:38;2.70;;;1.20;;
37559;SDS011;23398;50.928;7.084;2023-07-29T01:10:04;2.15;;;1.20;;
37559;SDS011;23398;50.928;7.084;2023-07-29T01:15:55;1.30;;;1.10;;
37559;SDS011;23398;50.928;7.084;2023-07-29T01:18:32;1.45;;;1.23;;
37559;SDS011;23398;50.928;7.084;2023-07-29T01:21:08;1.15;;;1.05;;
37559;SDS011;23398;50.928;7.084;2023-07-29T01:23:35;1.33;;;1.10;;
37559;SDS011;23398;50.928;7.084;2023-07-29T01:26:02;1.70;;;1.13;;
37559;SDS011;23398;50.928;7.084;2023-07-29T01:28:28;1.20;;;1.10;;
37559;SDS011;23398;50.928;7.084;2023-07-29T01:31:00;1.52;;;1.20;;
37559;SDS011;23398;50.928;7.084;2023-07-29T01:33:39;1.90;;;1.30;;
37559;SDS011;23398;50.928;7.084;2023-07-29T01:36:15;3.35;;;1.40;;
37559;SDS011;23398;50.928;7.084;2023-07-29T01:38:48;1.55;;;1.30;;
37559;SDS011;23398;50.928;7.084;2023-07-29T01:41:14;2.13;;;1.10;;
37559;SDS011;23398;50.928;7.084;2023-07-29T01:43:42;1.60;;;1.20;;
37559;SDS011;23398;50.928;7.084;2023-07-29T01:46:11;1.40;;;1.20;;
37559;SDS011;23398;50.928;7.084;2023-07-29T01:48:40;1.52;;;1.20;;
37559;SDS011;23398;50.928;7.084;2023-07-29T01:51:06;1.50;;;1.20;;
37559;SDS011;23398;50.928;7.084;2023-07-29T01:53:32;2.80;;;1.33;;
37559;SDS011;23398;50.928;7.084;2023-07-29T01:55:58;2.30;;;1.50;;
37559;SDS011;23398;50.928;7.084;2023-07-29T01:58:24;1.75;;;1.35;;
37559;SDS011;23398;50.928;7.084;2023-07-29T02:00:49;2.70;;;1.50;;
37559;SDS011;23398;50.928;7.084;2023-07-29T02:03:15;3.25;;;1.30;;
37559;SDS011;23398;50.928;7.084;2023-07-29T02:05:41;1.63;;;1.35;;
37559;SDS011;23398;50.928;7.084;2023-07-29T02:08:08;1.63;;;1.30;;
37559;SDS011;23398;50.928;7.084;2023-07-29T02:10:34;2.92;;;1.50;;
37559;SDS011;23398;50.928;7.084;2023-07-29T02:13:00;2.78;;;1.65;;
37559;SDS011;23398;50.928;7.084;2023-07-29T02:15:25;2.85;;;1.60;;
37559;SDS011;23398;50.928;7.084;2023-07-29T02:17:51;2.53;;;1.65;;
37559;SDS011;23398;50.928;7.084;2023-07-29T02:20:17;1.90;;;1.45;;
37559;SDS011;23398;50.928;7.084;2023-07-29T02:22:42;2.40;;;1.40;;
37559;SDS011;23398;50.928;7.084;2023-07-29T02:25:08;1.35;;;1.25;;
37559;SDS011;23398;50.928;7.084;2023-07-29T02:27:34;3.42;;;1.50;;
37559;SDS011;23398;50.928;7.084;2023-07-29T02:30:00;1.73;;;1.48;;
37559;SDS011;23398;50.928;7.084;2023-07-29T02:32:26;2.67;;;1.27;;
37559;SDS011;23398;50.928;7.084;2023-07-29T02:34:51;3.38;;;1.60;;
37559;SDS011;23398;50.928;7.084;2023-07-29T02:37:17;1.95;;;1.45;;
37559;SDS011;23398;50.928;7.084;2023-07-29T02:39:42;2.95;;;1.30;;
37559;SDS011;23398;50.928;7.084;2023-07-29T02:42:08;2.60;;;1.50;;
37559;SDS011;23398;50.928;7.084;2023-07-29T02:44:33;1.83;;;1.40;;
37559;SDS011;23398;50.928;7.084;2023-07-29T02:46:59;1.73;;;1.60;;
37559;SDS011;23398;50.928;7.084;2023-07-29T02:49:25;1.90;;;1.35;;
37559;SDS011;23398;50.928;7.084;2023-07-29T02:51:50;3.13;;;1.80;;
37559;SDS011;23398;50.928;7.084;2023-07-29T02:54:16;1.98;;;1.45;;
37559;SDS011;23398;50.928;7.084;2023-07-29T02:56:41;1.50;;;1.40;;
37559;SDS011;23398;50.928;7.084;2023-07-29T02:59:07;2.05;;;1.65;;
37559;SDS011;23398;50.928;7.084;2023-07-29T03:01:32;1.70;;;1.58;;
37559;SDS011;23398;50.928;7.084;2023-07-29T03:03:58;2.47;;;1.70;;
37559;SDS011;23398;50.928;7.084;2023-07-29T03:06:24;3.72;;;1.50;;
37559;SDS011;23398;50.928;7.084;2023-07-29T03:08:49;1.60;;;1.50;;
37559;SDS011;23398;50.928;7.084;2023-07-29T03:11:15;2.15;;;1.73;;
37559;SDS011;23398;50.928;7.084;2023-07-29T03:13:41;2.22;;;1.67;;
37559;SDS011;23398;50.928;7.084;2023-07-29T03:16:09;2.90;;;1.58;;
37559;SDS011;23398;50.928;7.084;2023-07-29T03:18:34;4.18;;;1.60;;
37559;SDS011;23398;50.928;7.084;2023-07-29T03:21:00;1.73;;;1.40;;
37559;SDS011;23398;50.928;7.084;2023-07-29T03:23:27;2.03;;;1.40;;
37559;SDS011;23398;50.928;7.084;2023-07-29T03:25:57;3.13;;;1.60;;
37559;SDS011;23398;50.928;7.084;2023-07-29T03:28:26;1.60;;;1.50;;
37559;SDS011;23398;50.928;7.084;2023-07-29T03:30:57;1.92;;;1.70;;
37559;SDS011;23398;50.928;7.084;2023-07-29T03:33:24;1.77;;;1.38;;
37559;SDS011;23398;50.928;7.084;2023-07-29T03:35:50;3.97;;;1.70;;
37559;SDS011;23398;50.928;7.084;2023-07-29T03:38:16;2.88;;;1.65;;
37559;SDS011;23398;50.928;7.084;2023-07-29T03:40:42;1.90;;;1.50;;
37559;SDS011;23398;50.928;7.084;2023-07-29T03:43:08;2.35;;;1.50;;
37559;SDS011;23398;50.928;7.084;2023-07-29T03:45:34;1.85;;;1.52;;
37559;SDS011;23398;50.928;7.084;2023-07-29T03:48:00;2.40;;;1.50;;
37559;SDS011;23398;50.928;7.084;2023-07-29T03:50:26;4.18;;;1.58;;
37559;SDS011;23398;50.928;7.084;2023-07-29T03:52:54;4.00;;;1.45;;
37559;SDS011;23398;50.928;7.084;2023-07-29T03:55:20;2.42;;;1.52;;
37559;SDS011;23398;50.928;7.084;2023-07-29T03:57:45;2.58;;;1.42;;
37559;SDS011;23398;50.928;7.084;2023-07-29T04:00:11;2.50;;;1.42;;
37559;SDS011;23398;50.928;7.084;2023-07-29T04:02:37;1.42;;;1.30;;
37559;SDS011;23398;50.928;7.084;2023-07-29T04:05:03;2.25;;;1.35;;
37559;SDS011;23398;50.928;7.084;2023-07-29T04:07:31;3.03;;;1.40;;
37559;SDS011;23398;50.928;7.084;2023-07-29T04:09:56;1.73;;;1.30;;
37559;SDS011;23398;50.928;7.084;2023-07-29T04:12:23;5.28;;;1.40;;
37559;SDS011;23398;50.928;7.084;2023-07-29T04:14:49;1.85;;;1.38;;
37559;SDS011;23398;50.928;7.084;2023-07-29T04:17:15;2.97;;;1.40;;
37559;SDS011;23398;50.928;7.084;2023-07-29T04:19:40;1.90;;;1.20;;
37559;SDS011;23398;50.928;7.084;2023-07-29T04:22:06;1.95;;;1.48;;
37559;SDS011;23398;50.928;7.084;2023-07-29T04:24:32;2.33;;;1.60;;
37559;SDS011;23398;50.928;7.084;2023-07-29T04:26:57;1.50;;;1.40;;
37559;SDS011;23398;50.928;7.084;2023-07-29T04:29:24;2.05;;;1.42;;
37559;SDS011;23398;50.928;7.084;2023-07-29T04:31:50;1.90;;;1.38;;
37559;SDS011;23398;50.928;7.084;2023-07-29T04:34:16;1.58;;;1.48;;
37559;SDS011;23398;50.928;7.084;2023-07-29T04:36:42;2.55;;;1.50;;
37559;SDS011;23398;50.928;7.084;2023-07-29T04:39:08;1.95;;;1.52;;
37559;SDS011;23398;50.928;7.084;2023-07-29T04:41:34;1.55;;;1.45;;
37559;SDS011;23398;50.928;7.084;2023-07-29T04:44:00;2.28;;;1.60;;
37559;SDS011;23398;50.928;7.084;2023-07-29T04:46:25;1.65;;;1.55;;
37559;SDS011;23398;50.928;7.084;2023-07-29T04:48:51;2.35;;;1.55;;
37559;SDS011;23398;50.928;7.084;2023-07-29T04:51:16;2.03;;;1.38;;
37559;SDS011;23398;50.928;7.084;2023-07-29T04:53:42;1.75;;;1.58;;
37559;SDS011;23398;50.928;7.084;2023-07-29T04:56:07;1.73;;;1.42;;
37559;SDS011;23398;50.928;7.084;2023-07-29T04:58:33;1.80;;;1.65;;
37559;SDS011;23398;50.928;7.084;2023-07-29T05:01:01;2.25;;;1.75;;
37559;SDS011;23398;50.928;7.084;2023-07-29T05:03:27;1.75;;;1.45;;
37559;SDS011;23398;50.928;7.084;2023-07-29T05:05:52;2.15;;;1.73;;
37559;SDS011;23398;50.928;7.084;2023-07-29T05:08:23;1.80;;;1.60;;
37559;SDS011;23398;50.928;7.084;2023-07-29T05:10:49;2.20;;;2.00;;
37559;SDS011;23398;50.928;7.084;2023-07-29T05:13:15;2.22;;;1.67;;
37559;SDS011;23398;50.928;7.084;2023-07-29T05:15:41;3.67;;;2.13;;
37559;SDS011;23398;50.928;7.084;2023-07-29T05:18:07;2.05;;;1.70;;
37559;SDS011;23398;50.928;7.084;2023-07-29T05:20:32;2.90;;;1.67;;
37559;SDS011;23398;50.928;7.084;2023-07-29T05:22:58;3.08;;;2.10;;
37559;SDS011;23398;50.928;7.084;2023-07-29T05:25:23;2.00;;;1.80;;
37559;SDS011;23398;50.928;7.084;2023-07-29T05:27:49;2.25;;;2.05;;
37559;SDS011;23398;50.928;7.084;2023-07-29T05:30:15;2.42;;;2.10;;
37559;SDS011;23398;50.928;7.084;2023-07-29T05:32:40;2.55;;;1.80;;
37559;SDS011;23398;50.928;7.084;2023-07-29T05:35:06;2.53;;;1.92;;
37559;SDS011;23398;50.928;7.084;2023-07-29T05:37:32;3.17;;;1.95;;
37559;SDS011;23398;50.928;7.084;2023-07-29T05:39:57;1.98;;;1.77;;
37559;SDS011;23398;50.928;7.084;2023-07-29T05:42:23;2.67;;;1.85;;
37559;SDS011;23398;50.928;7.084;2023-07-29T05:44:48;2.03;;;1.90;;
37559;SDS011;23398;50.928;7.084;2023-07-29T05:47:14;2.92;;;2.45;;
37559;SDS011;23398;50.928;7.084;2023-07-29T05:49:39;3.63;;;2.17;;
37559;SDS011;23398;50.928;7.084;2023-07-29T05:52:05;4.53;;;2.53;;
37559;SDS011;23398;50.928;7.084;2023-07-29T05:54:31;3.53;;;2.13;;
37559;SDS011;23398;50.928;7.084;2023-07-29T05:56:56;2.30;;;2.10;;
37559;SDS011;23398;50.928;7.084;2023-07-29T05:59:22;2.63;;;1.77;;
37559;SDS011;23398;50.928;7.084;2023-07-29T06:01:47;2.53;;;2.10;;
37559;SDS011;23398;50.928;7.084;2023-07-29T06:04:13;2.63;;;1.95;;
37559;SDS011;23398;50.928;7.084;2023-07-29T06:06:39;2.90;;;1.80;;
37559;SDS011;23398;50.928;7.084;2023-07-29T06:09:04;2.08;;;1.83;;
37559;SDS011;23398;50.928;7.084;2023-07-29T06:11:30;3.20;;;1.70;;
37559;SDS011;23398;50.928;7.084;2023-07-29T06:13:55;1.90;;;1.63;;
37559;SDS011;23398;50.928;7.084;2023-07-29T06:16:21;3.38;;;1.75;;
37559;SDS011;23398;50.928;7.084;2023-07-29T06:18:46;4.05;;;2.22;;
37559;SDS011;23398;50.928;7.084;2023-07-29T06:21:12;2.65;;;2.08;;
37559;SDS011;23398;50.928;7.084;2023-07-29T06:23:42;2.83;;;1.88;;
37559;SDS011;23398;50.928;7.084;2023-07-29T06:26:08;2.90;;;1.80;;
37559;SDS011;23398;50.928;7.084;2023-07-29T06:28:34;2.42;;;1.50;;
37559;SDS011;23398;50.928;7.084;2023-07-29T06:30:59;2.28;;;1.50;;
37559;SDS011;23398;50.928;7.084;2023-07-29T06:33:26;1.83;;;1.60;;
37559;SDS011;23398;50.928;7.084;2023-07-29T06:35:51;1.60;;;1.50;;
37559;SDS011;23398;50.928;7.084;2023-07-29T06:38:17;3.17;;;1.35;;
37559;SDS011;23398;50.928;7.084;2023-07-29T06:40:46;2.03;;;1.52;;
37559;SDS011;23398;50.928;7.084;2023-07-29T06:43:15;1.50;;;1.40;;
37559;SDS011;23398;50.928;7.084;2023-07-29T06:45:41;2.63;;;1.40;;
37559;SDS011;23398;50.928;7.084;2023-07-29T06:48:07;2.30;;;2.10;;
37559;SDS011;23398;50.928;7.084;2023-07-29T06:50:32;2.88;;;2.20;;
37559;SDS011;23398;50.928;7.084;2023-07-29T06:52:58;2.53;;;1.88;;
37559;SDS011;23398;50.928;7.084;2023-07-29T06:55:24;4.40;;;1.60;;
37559;SDS011;23398;50.928;7.084;2023-07-29T06:57:49;2.70;;;1.63;;
37559;SDS011;23398;50.928;7.084;2023-07-29T07:00:15;3.38;;;1.50;;
37559;SDS011;23398;50.928;7.084;2023-07-29T07:02:40;2.03;;;1.30;;
37559;SDS011;23398;50.928;7.084;2023-07-29T07:05:06;2.53;;;1.20;;
37559;SDS011;23398;50.928;7.084;2023-07-29T07:07:32;1.40;;;1.27;;
37559;SDS011;23398;50.928;7.084;2023-07-29T07:09:58;1.75;;;1.30;;
37559;SDS011;23398;50.928;7.084;2023-07-29T07:12:23;1.30;;;1.20;;
37559;SDS011;23398;50.928;7.084;2023-07-29T07:14:49;2.22;;;1.65;;
37559;SDS011;23398;50.928;7.084;2023-07-29T07:17:14;1.80;;;1.45;;
37559;SDS011;23398;50.928;7.084;2023-07-29T07:19:40;2.20;;;1.52;;
37559;SDS011;23398;50.928;7.084;2023-07-29T07:22:06;1.58;;;1.45;;
37559;SDS011;23398;50.928;7.084;2023-07-29T07:24:31;1.40;;;1.20;;
37559;SDS011;23398;50.928;7.084;2023-07-29T07:26:57;2.17;;;1.40;;
37559;SDS011;23398;50.928;7.084;2023-07-29T07:29:23;1.60;;;1.50;;
37559;SDS011;23398;50.928;7.084;2023-07-29T07:31:52;1.55;;;1.35;;
37559;SDS011;23398;50.928;7.084;2023-07-29T07:34:19;1.70;;;1.27;;
37559;SDS011;23398;50.928;7.084;2023-07-29T07:36:45;1.17;;;1.02;;
37559;SDS011;23398;50.928;7.084;2023-07-29T07:39:11;1.85;;;1.17;;
37559;SDS011;23398;50.928;7.084;2023-07-29T07:41:37;1.38;;;1.00;;
37559;SDS011;23398;50.928;7.084;2023-07-29T07:44:02;1.42;;;1.33;;
37559;SDS011;23398;50.928;7.084;2023-07-29T07:46:28;1.27;;;1.17;;
37559;SDS011;23398;50.928;7.084;2023-07-29T07:48:54;1.33;;;1.23;;
37559;SDS011;23398;50.928;7.084;2023-07-29T07:51:20;1.20;;;1.10;;
37559;SDS011;23398;50.928;7.084;2023-07-29T07:53:45;1.30;;;1.20;;
37559;SDS011;23398;50.928;7.084;2023-07-29T07:56:11;1.55;;;1.20;;
37559;SDS011;23398;50.928;7.084;2023-07-29T07:58:37;1.83;;;1.35;;
37559;SDS011;23398;50.928;7.084;2023-07-29T08:01:03;1.90;;;1.20;;
37559;SDS011;23398;50.928;7.084;2023-07-29T08:03:33;1.10;;;1.00;;
37559;SDS011;23398;50.928;7.084;2023-07-29T08:05:59;3.10;;;1.40;;
37559;SDS011;23398;50.928;7.084;2023-07-29T08:08:27;1.83;;;1.20;;
37559;SDS011;23398;50.928;7.084;2023-07-29T08:10:53;3.50;;;1.38;;
37559;SDS011;23398;50.928;7.084;2023-07-29T08:13:20;2.17;;;1.00;;
37559;SDS011;23398;50.928;7.084;2023-07-29T08:15:49;1.40;;;1.10;;
37559;SDS011;23398;50.928;7.084;2023-07-29T08:18:16;1.92;;;1.20;;
37559;SDS011;23398;50.928;7.084;2023-07-29T08:20:55;1.27;;;1.02;;
37559;SDS011;23398;50.928;7.084;2023-07-29T08:23:27;2.20;;;1.30;;
37559;SDS011;23398;50.928;7.084;2023-07-29T08:25:55;1.33;;;1.23;;
37559;SDS011;23398;50.928;7.084;2023-07-29T08:28:26;1.30;;;1.20;;
37559;SDS011;23398;50.928;7.084;2023-07-29T08:30:55;1.10;;;1.00;;
37559;SDS011;23398;50.928;7.084;2023-07-29T08:33:21;1.65;;;1.20;;
37559;SDS011;23398;50.928;7.084;2023-07-29T08:35:46;1.40;;;1.10;;
37559;SDS011;23398;50.928;7.084;2023-07-29T08:38:12;1.90;;;1.10;;
37559;SDS011;23398;50.928;7.084;2023-07-29T08:40:41;3.25;;;1.20;;
37559;SDS011;23398;50.928;7.084;2023-07-29T08:43:10;1.55;;;1.00;;
37559;SDS011;23398;50.928;7.084;2023-07-29T08:45:37;1.63;;;1.13;;
37559;SDS011;23398;50.928;7.084;2023-07-29T08:48:07;1.30;;;1.20;;
37559;SDS011;23398;50.928;7.084;2023-07-29T08:50:35;1.67;;;1.05;;
37559;SDS011;23398;50.928;7.084;2023-07-29T08:53:05;2.47;;;1.00;;
37559;SDS011;23398;50.928;7.084;2023-07-29T08:55:31;1.08;;;0.90;;
37559;SDS011;23398;50.928;7.084;2023-07-29T08:57:57;1.20;;;1.10;;
37559;SDS011;23398;50.928;7.084;2023-07-29T09:00:23;1.15;;;1.02;;
37559;SDS011;23398;50.928;7.084;2023-07-29T09:02:50;1.00;;;0.90;;
37559;SDS011;23398;50.928;7.084;2023-07-29T09:05:15;1.13;;;1.02;;
37559;SDS011;23398;50.928;7.084;2023-07-29T09:07:41;1.20;;;1.10;;
37559;SDS011;23398;50.928;7.084;2023-07-29T09:10:09;1.23;;;1.00;;
37559;SDS011;23398;50.928;7.084;2023-07-29T09:12:38;1.35;;;1.00;;
37559;SDS011;23398;50.928;7.084;2023-07-29T09:15:04;1.13;;;1.00;;
37559;SDS011;23398;50.928;7.084;2023-07-29T09:17:31;1.40;;;1.00;;
37559;SDS011;23398;50.928;7.084;2023-07-29T09:19:58;1.25;;;1.15;;
37559;SDS011;23398;50.928;7.084;2023-07-29T09:22:23;2.65;;;1.08;;
37559;SDS011;23398;50.928;7.084;2023-07-29T09:24:51;1.10;;;1.00;;
37559;SDS011;23398;50.928;7.084;2023-07-29T09:27:26;1.90;;;1.15;;
37559;SDS011;23398;50.928;7.084;2023-07-29T09:29:53;1.38;;;0.90;;
37559;SDS011;23398;50.928;7.084;2023-07-29T09:32:21;1.45;;;0.95;;
37559;SDS011;23398;50.928;7.084;2023-07-29T09:38:28;0.90;;;0.90;;
37559;SDS011;23398;50.928;7.084;2023-07-29T09:40:54;1.83;;;1.00;;
37559;SDS011;23398;50.928;7.084;2023-07-29T09:43:25;1.75;;;1.10;;
37559;SDS011;23398;50.928;7.084;2023-07-29T09:45:55;1.73;;;0.90;;
37559;SDS011;23398;50.928;7.084;2023-07-29T09:54:52;1.52;;;1.10;;
37559;SDS011;23398;50.928;7.084;2023-07-29T09:57:19;1.42;;;1.10;;
37559;SDS011;23398;50.928;7.084;2023-07-29T09:59:55;1.30;;;1.20;;
37559;SDS011;23398;50.928;7.084;2023-07-29T10:02:21;1.38;;;1.08;;
37559;SDS011;23398;50.928;7.084;2023-07-29T10:04:48;1.58;;;1.27;;
37559;SDS011;23398;50.928;7.084;2023-07-29T10:07:14;1.40;;;1.20;;
37559;SDS011;23398;50.928;7.084;2023-07-29T10:09:41;1.95;;;1.25;;
37559;SDS011;23398;50.928;7.084;2023-07-29T10:12:08;2.50;;;1.30;;
37559;SDS011;23398;50.928;7.084;2023-07-29T10:14:37;2.15;;;1.17;;
37559;SDS011;23398;50.928;7.084;2023-07-29T10:17:04;3.50;;;1.25;;
37559;SDS011;23398;50.928;7.084;2023-07-29T10:19:30;1.65;;;1.00;;
37559;SDS011;23398;50.928;7.084;2023-07-29T10:21:58;2.25;;;1.13;;
37559;SDS011;23398;50.928;7.084;2023-07-29T10:24:29;1.25;;;1.08;;
37559;SDS011;23398;50.928;7.084;2023-07-29T10:26:58;1.73;;;1.20;;
37559;SDS011;23398;50.928;7.084;2023-07-29T10:29:25;1.02;;;0.93;;
37559;SDS011;23398;50.928;7.084;2023-07-29T10:31:55;1.40;;;0.90;;
37559;SDS011;23398;50.928;7.084;2023-07-29T10:34:23;2.33;;;1.20;;
37559;SDS011;23398;50.928;7.084;2023-07-29T10:36:50;1.00;;;0.90;;
37559;SDS011;23398;50.928;7.084;2023-07-29T10:39:16;1.13;;;1.02;;
37559;SDS011;23398;50.928;7.084;2023-07-29T10:42:05;1.13;;;1.02;;
37559;SDS011;23398;50.928;7.084;2023-07-29T10:47:14;1.25;;;1.00;;
37559;SDS011;23398;50.928;7.084;2023-07-29T10:49:41;1.00;;;0.90;;
37559;SDS011;23398;50.928;7.084;2023-07-29T10:52:07;1.20;;;1.10;;
37559;SDS011;23398;50.928;7.084;2023-07-29T10:54:43;1.23;;;1.10;;
37559;SDS011;23398;50.928;7.084;2023-07-29T10:57:13;2.53;;;1.20;;
37559;SDS011;23398;50.928;7.084;2023-07-29T10:59:55;1.20;;;1.10;;
37559;SDS011;23398;50.928;7.084;2023-07-29T11:02:22;1.30;;;1.10;;
37559;SDS011;23398;50.928;7.084;2023-07-29T11:04:54;1.23;;;1.13;;
37559;SDS011;23398;50.928;7.084;2023-07-29T11:07:20;1.40;;;1.30;;
37559;SDS011;23398;50.928;7.084;2023-07-29T11:12:42;1.40;;;1.30;;
37559;SDS011;23398;50.928;7.084;2023-07-29T11:15:22;2.15;;;1.15;;
37559;SDS011;23398;50.928;7.084;2023-07-29T11:17:56;2.00;;;1.23;;
37559;SDS011;23398;50.928;7.084;2023-07-29T11:20:24;1.40;;;1.30;;
37559;SDS011;23398;50.928;7.084;2023-07-29T11:22:52;2.30;;;1.30;;
37559;SDS011;23398;50.928;7.084;2023-07-29T11:25:18;1.50;;;1.40;;
37559;SDS011;23398;50.928;7.084;2023-07-29T11:27:44;2.15;;;1.20;;
37559;SDS011;23398;50.928;7.084;2023-07-29T11:30:11;1.38;;;1.25;;
37559;SDS011;23398;50.928;7.084;2023-07-29T11:32:39;1.60;;;1.17;;
37559;SDS011;23398;50.928;7.084;2023-07-29T11:35:11;1.50;;;1.40;;
37559;SDS011;23398;50.928;7.084;2023-07-29T11:37:39;1.20;;;1.10;;
37559;SDS011;23398;50.928;7.084;2023-07-29T11:40:05;1.48;;;1.30;;
37559;SDS011;23398;50.928;7.084;2023-07-29T11:42:33;2.47;;;1.20;;
37559;SDS011;23398;50.928;7.084;2023-07-29T11:44:59;1.42;;;1.27;;
37559;SDS011;23398;50.928;7.084;2023-07-29T11:47:26;1.35;;;1.25;;
37559;SDS011;23398;50.928;7.084;2023-07-29T11:49:52;1.48;;;1.30;;
37559;SDS011;23398;50.928;7.084;2023-07-29T11:52:17;1.15;;;1.05;;
37559;SDS011;23398;50.928;7.084;2023-07-29T11:54:45;2.78;;;1.35;;
37559;SDS011;23398;50.928;7.084;2023-07-29T11:57:14;1.40;;;1.30;;
37559;SDS011;23398;50.928;7.084;2023-07-29T11:59:40;1.60;;;1.10;;
37559;SDS011;23398;50.928;7.084;2023-07-29T12:02:11;1.60;;;1.40;;
37559;SDS011;23398;50.928;7.084;2023-07-29T12:04:38;1.88;;;1.40;;
37559;SDS011;23398;50.928;7.084;2023-07-29T12:07:06;1.80;;;1.40;;
37559;SDS011;23398;50.928;7.084;2023-07-29T12:09:33;1.63;;;1.30;;
37559;SDS011;23398;50.928;7.084;2023-07-29T12:12:00;1.40;;;1.30;;
37559;SDS011;23398;50.928;7.084;2023-07-29T12:14:27;1.30;;;1.20;;
37559;SDS011;23398;50.928;7.084;2023-07-29T12:16:53;1.38;;;1.17;;
37559;SDS011;23398;50.928;7.084;2023-07-29T12:19:19;1.40;;;1.30;;
37559;SDS011;23398;50.928;7.084;2023-07-29T12:21:47;1.33;;;1.23;;
37559;SDS011;23398;50.928;7.084;2023-07-29T12:24:13;1.50;;;1.40;;
37559;SDS011;23398;50.928;7.084;2023-07-29T12:26:40;1.50;;;1.13;;
37559;SDS011;23398;50.928;7.084;2023-07-29T12:29:16;1.40;;;1.30;;
37559;SDS011;23398;50.928;7.084;2023-07-29T12:31:44;1.77;;;1.40;;
37559;SDS011;23398;50.928;7.084;2023-07-29T12:34:16;1.20;;;1.10;;
37559;SDS011;23398;50.928;7.084;2023-07-29T12:36:46;1.55;;;1.35;;
37559;SDS011;23398;50.928;7.084;2023-07-29T12:39:20;1.42;;;1.30;;
37559;SDS011;23398;50.928;7.084;2023-07-29T12:41:47;1.30;;;1.20;;
37559;SDS011;23398;50.928;7.084;2023-07-29T12:44:14;1.15;;;1.05;;
37559;SDS011;23398;50.928;7.084;2023-07-29T12:46:40;1.30;;;1.17;;
37559;SDS011;23398;50.928;7.084;2023-07-29T12:49:05;1.00;;;1.00;;
37559;SDS011;23398;50.928;7.084;2023-07-29T12:51:31;1.30;;;1.20;;
37559;SDS011;23398;50.928;7.084;2023-07-29T12:53:57;1.38;;;1.05;;
37559;SDS011;23398;50.928;7.084;2023-07-29T12:56:22;1.10;;;1.00;;
37559;SDS011;23398;50.928;7.084;2023-07-29T12:58:48;1.02;;;0.93;;
37559;SDS011;23398;50.928;7.084;2023-07-29T13:01:14;1.30;;;1.20;;
37559;SDS011;23398;50.928;7.084;2023-07-29T13:03:43;1.40;;;1.30;;
37559;SDS011;23398;50.928;7.084;2023-07-29T13:06:09;1.05;;;1.00;;
37559;SDS011;23398;50.928;7.084;2023-07-29T13:08:34;1.40;;;1.30;;
37559;SDS011;23398;50.928;7.084;2023-07-29T13:11:00;1.20;;;1.10;;
37559;SDS011;23398;50.928;7.084;2023-07-29T13:13:25;1.42;;;1.30;;
37559;SDS011;23398;50.928;7.084;2023-07-29T13:15:51;1.17;;;1.08;;
37559;SDS011;23398;50.928;7.084;2023-07-29T13:18:17;1.20;;;1.10;;
37559;SDS011;23398;50.928;7.084;2023-07-29T13:20:43;1.45;;;1.20;;
37559;SDS011;23398;50.928;7.084;2023-07-29T13:23:08;1.33;;;1.13;;
37559;SDS011;23398;50.928;7.084;2023-07-29T13:25:34;1.20;;;1.10;;
37559;SDS011;23398;50.928;7.084;2023-07-29T13:27:59;1.30;;;1.13;;
37559;SDS011;23398;50.928;7.084;2023-07-29T13:30:25;1.10;;;1.00;;
37559;SDS011;23398;50.928;7.084;2023-07-29T13:32:51;1.33;;;1.02;;
37559;SDS011;23398;50.928;7.084;2023-07-29T13:35:16;1.65;;;1.08;;
37559;SDS011;23398;50.928;7.084;2023-07-29T13:37:42;1.20;;;1.10;;
37559;SDS011;23398;50.928;7.084;2023-07-29T13:40:07;1.88;;;1.30;;
37559;SDS011;23398;50.928;7.084;2023-07-29T13:42:33;1.30;;;1.15;;
37559;SDS011;23398;50.928;7.084;2023-07-29T13:44:58;1.63;;;1.25;;
37559;SDS011;23398;50.928;7.084;2023-07-29T13:47:24;2.13;;;1.35;;
37559;SDS011;23398;50.928;7.084;2023-07-29T13:49:49;1.35;;;1.17;;
37559;SDS011;23398;50.928;7.084;2023-07-29T13:52:15;2.00;;;1.30;;
37559;SDS011;23398;50.928;7.084;2023-07-29T13:54:41;1.67;;;1.30;;
37559;SDS011;23398;50.928;7.084;2023-07-29T13:57:06;1.35;;;1.15;;
37559;SDS011;23398;50.928;7.084;2023-07-29T13:59:32;1.52;;;1.42;;
37559;SDS011;23398;50.928;7.084;2023-07-29T14:01:58;1.80;;;1.42;;
37559;SDS011;23398;50.928;7.084;2023-07-29T14:04:23;1.83;;;1.30;;
37559;SDS011;23398;50.928;7.084;2023-07-29T14:06:49;1.45;;;1.35;;
37559;SDS011;23398;50.928;7.084;2023-07-29T14:09:14;1.70;;;1.35;;
37559;SDS011;23398;50.928;7.084;2023-07-29T14:11:40;2.30;;;1.45;;
37559;SDS011;23398;50.928;7.084;2023-07-29T14:14:06;2.13;;;1.40;;
37559;SDS011;23398;50.928;7.084;2023-07-29T14:16:32;1.63;;;1.30;;
37559;SDS011;23398;50.928;7.084;2023-07-29T14:18:57;1.33;;;1.23;;
37559;SDS011;23398;50.928;7.084;2023-07-29T14:21:23;1.67;;;1.42;;
37559;SDS011;23398;50.928;7.084;2023-07-29T14:23:49;2.70;;;1.73;;
37559;SDS011;23398;50.928;7.084;2023-07-29T14:26:15;2.08;;;1.88;;
37559;SDS011;23398;50.928;7.084;2023-07-29T14:28:40;2.67;;;1.90;;
37559;SDS011;23398;50.928;7.084;2023-07-29T14:31:06;2.08;;;1.58;;
37559;SDS011;23398;50.928;7.084;2023-07-29T14:33:32;2.58;;;1.58;;
37559;SDS011;23398;50.928;7.084;2023-07-29T14:35:57;1.75;;;1.40;;
37559;SDS011;23398;50.928;7.084;2023-07-29T14:38:23;2.40;;;1.52;;
37559;SDS011;23398;50.928;7.084;2023-07-29T14:40:49;1.88;;;1.58;;
37559;SDS011;23398;50.928;7.084;2023-07-29T14:43:16;1.77;;;1.35;;
37559;SDS011;23398;50.928;7.084;2023-07-29T14:45:42;1.40;;;1.30;;
37559;SDS011;23398;50.928;7.084;2023-07-29T14:48:07;1.75;;;1.40;;
37559;SDS011;23398;50.928;7.084;2023-07-29T14:50:33;1.25;;;1.10;;
37559;SDS011;23398;50.928;7.084;2023-07-29T14:52:58;1.40;;;1.30;;
37559;SDS011;23398;50.928;7.084;2023-07-29T14:55:24;1.98;;;1.27;;
37559;SDS011;23398;50.928;7.084;2023-07-29T14:57:49;1.83;;;1.50;;
37559;SDS011;23398;50.928;7.084;2023-07-29T15:00:15;1.80;;;1.50;;
37559;SDS011;23398;50.928;7.084;2023-07-29T15:02:41;1.70;;;1.45;;
37559;SDS011;23398;50.928;7.084;2023-07-29T15:05:06;1.90;;;1.27;;
37559;SDS011;23398;50.928;7.084;2023-07-29T15:07:32;1.40;;;1.25;;